Camp Douglas, WI (54637)

21:13 CDT le 02 septembre 2014 (GMT -0500)
Volk | Change Station
CLOSE
Current Station
Aéroport
Location: Volk,
Altitude: 909 ft
Stations météo à proximité

Alt. 909 ft 43.94 °N, 90.25 °W | Updated 15 minutes ago

Partly Cloudy
Partiellement nuageux
59 ° F
Paraît 59 ° F
N
0
Vent Variable Vent de Nord

Aujourd'hui
Haut(e) -- | Bas -- ° F
--% Risque de précip.
Hier
Haut(e) -- | Bas -- ° F
Precip. -- pouce
6:25 AM 7:35 PM
Premier quartier, 57% visible
Pression 29.91 pouce
Visibilité 10.0 Miles terrestres
Nuages Peu 4500 ft
Peu 20000 ft
Point de rosée 59 ° F
Humidité 100%
Précipitations 0.00 pouce
Profondeur de la couche neigeuse Non disponible.
UV 0 sur 12
Pollen 8.80 sur 12
Qualité de l'air Non disponible.
Flu Activity Non disponible.
METAR KVOK 030158Z 00000KT 10SM FEW045 FEW200 15/15 A2990 RMK AO2A SLP128

More Conditions Fewer Conditions

Pression 29.91 pouce
Visibilité 10.0 Miles terrestres
Nuages Peu 4500 ft
Peu 20000 ft
Point de rosée 59 ° F
Humidité 100%
Précipitations 0.00 pouce
Profondeur de la couche neigeuse Non disponible.
UV 0 sur 12
Pollen 8.80 sur 12
Qualité de l'air Non disponible.
Flu Activity Non disponible.
METAR KVOK 030158Z 00000KT 10SM FEW045 FEW200 15/15 A2990 RMK AO2A SLP128

More Conditions Fewer Conditions

10-Day Weather Forecast

Almanac

Astronomie

Sep. 02, 2014 Lever Coucher
Temps réel 06:25 CDT 19:35 CDT
Crépuscule civil 05:55 CDT 20:04 CDT
Crépuscule nautique 05:20 CDT 20:40 CDT
Crépuscule astronomique 04:42 CDT 21:17 CDT
Lune 14:24 CDT (9/2) Pas de coucher de lune
Durée de lumière visible 14h 08m
Longueur du jour
13h 09m
Tomorrow will be 2m 55s shorter.
Premier quartier, 57% of the Moon is Illuminated
Aujourd'hui
Premier quartier
Sep 8
Pleine lune
Sep 15
Dernier quartier
Sep 24
Nouveau
Oct 1
Premier quartier

Extrêmes aujourd'hui

State Highs State Lows

Community

WunderPhotos

Upload Photos

1,749,841 Photos téléchargées !

Nearby

Épaisseur de neige

Station Depth Altitude
Pas de nouvelles chutes de neige

Activité sismique

Ville Distance Mag. Time & Date
No recent earthquake activity has been reported nearby.
Minimum magnitude displayed is 2.5.

Températures des eaux côtières

Lieu Température
Aucun rapport de station

Stations météo à proximité